Time;durP1;ratioP1;P1;durP2;ratioP2;P2;SDS_P1;SDS_P2;PMS_P1;PMS_P2;Temp;Humidity;BMP_temperature;BMP_pressure;BME280_temperature;BME280_humidity;BME280_pressure;Samples;Min_cycle;Max_cycle;Signal;HPM_P1;HPM_P2
2022/03/31 00:01:21;;;;;;;11.53;4.13;;;8.90;99.90;;;;;;5031601;28;20278;-63
2022/03/31 00:03:48;;;;;;;10.13;4.23;;;8.90;99.90;;;;;;5038164;28;20206;-63
2022/03/31 00:06:14;;;;;;;13.63;4.27;;;8.90;99.90;;;;;;5040727;28;20655;-64
2022/03/31 00:08:41;;;;;;;11.87;4.30;;;8.90;99.90;;;;;;5037043;28;20805;-65
2022/03/31 00:11:08;;;;;;;16.60;4.03;;;9.00;99.90;;;;;;5039422;28;20283;-66
2022/03/31 00:13:34;;;;;;;12.90;4.00;;;9.00;99.90;;;;;;5042002;28;20192;-64
2022/03/31 00:16:00;;;;;;;6.37;3.77;;;9.00;99.90;;;;;;5054675;28;20200;-63
2022/03/31 00:18:29;;;;;;;10.33;3.83;;;9.10;99.90;;;;;;5039298;28;20219;-65
2022/03/31 00:20:56;;;;;;;14.77;4.80;;;9.00;99.90;;;;;;5044251;28;20196;-64
2022/03/31 00:23:22;;;;;;;10.37;4.40;;;9.00;99.90;;;;;;5040598;28;20273;-63
2022/03/31 00:25:49;;;;;;;8.50;3.97;;;9.00;99.90;;;;;;5036743;28;20211;-64
2022/03/31 00:28:15;;;;;;;10.63;4.30;;;9.10;99.90;;;;;;5041700;28;20534;-63
2022/03/31 00:30:42;;;;;;;7.77;3.90;;;9.10;99.90;;;;;;5035880;28;20199;-65
2022/03/31 00:33:08;;;;;;;9.53;4.13;;;9.00;99.90;;;;;;5036518;28;20563;-64
2022/03/31 00:35:35;;;;;;;11.50;4.27;;;9.10;99.90;;;;;;5039630;28;20224;-64
2022/03/31 00:38:01;;;;;;;10.50;4.00;;;9.00;99.90;;;;;;5042214;28;20254;-64
2022/03/31 00:40:27;;;;;;;9.97;3.80;;;9.00;99.90;;;;;;5044590;28;20219;-64
2022/03/31 00:42:57;;;;;;;8.47;3.70;;;9.00;99.90;;;;;;5044460;28;20186;-63
2022/03/31 00:45:46;;;;;;;8.10;4.23;;;9.00;99.90;;;;;;5042427;28;20188;-65
2022/03/31 00:48:19;;;;;;;10.30;3.73;;;9.00;99.90;;;;;;5032019;28;20191;-63
2022/03/31 00:50:47;;;;;;;9.63;3.83;;;8.90;99.90;;;;;;5028991;28;20200;-64
2022/03/31 00:53:13;;;;;;;13.33;4.03;;;8.90;99.90;;;;;;5043301;28;20190;-64
2022/03/31 00:55:41;;;;;;;15.00;4.17;;;8.80;99.90;;;;;;5029135;28;20188;-64
2022/03/31 00:58:08;;;;;;;12.13;3.80;;;8.80;99.90;;;;;;5044109;28;20296;-64
2022/03/31 01:00:35;;;;;;;10.07;3.60;;;8.80;99.90;;;;;;5037638;28;20924;-64
2022/03/31 01:03:03;;;;;;;10.97;3.80;;;8.80;99.90;;;;;;5049190;28;20188;-63
2022/03/31 01:05:29;;;;;;;10.97;4.13;;;8.80;99.90;;;;;;5046486;28;20192;-65
2022/03/31 01:07:55;;;;;;;10.97;3.57;;;8.80;99.90;;;;;;5038414;28;20195;-66
2022/03/31 01:10:22;;;;;;;10.40;3.77;;;8.80;99.90;;;;;;5048089;28;20547;-65
2022/03/31 01:12:49;;;;;;;14.53;3.47;;;8.80;99.90;;;;;;5046232;28;20645;-65
2022/03/31 01:15:15;;;;;;;9.60;3.47;;;8.90;99.90;;;;;;5048581;28;20306;-64
2022/03/31 01:17:45;;;;;;;12.10;3.67;;;8.90;99.90;;;;;;5056651;28;21080;-64
2022/03/31 01:20:21;;;;;;;8.73;4.33;;;8.90;99.90;;;;;;5048925;28;20667;-66
2022/03/31 01:22:50;;;;;;;8.57;3.30;;;8.80;99.90;;;;;;5044363;28;20406;-63
2022/03/31 01:25:17;;;;;;;9.47;3.63;;;8.80;99.90;;;;;;5031654;28;20207;-64
2022/03/31 01:27:46;;;;;;;10.43;3.37;;;8.80;99.90;;;;;;5048058;28;20186;-64
2022/03/31 01:30:20;;;;;;;21.17;3.53;;;8.80;99.90;;;;;;5044037;28;20260;-64
2022/03/31 01:32:47;;;;;;;12.87;3.40;;;8.80;99.90;;;;;;5056864;28;20694;-63
2022/03/31 01:35:15;;;;;;;16.03;3.57;;;8.80;99.90;;;;;;5061606;28;20678;-65
2022/03/31 01:37:43;;;;;;;11.23;3.50;;;8.90;99.90;;;;;;5049655;28;20211;-64
2022/03/31 01:40:11;;;;;;;10.23;3.20;;;8.80;99.90;;;;;;5043252;28;20201;-64
2022/03/31 01:42:38;;;;;;;12.03;3.00;;;8.80;99.90;;;;;;5039772;28;20573;-64
2022/03/31 01:45:08;;;;;;;12.37;3.57;;;8.80;99.90;;;;;;5054243;28;20603;-64
2022/03/31 01:47:35;;;;;;;10.63;3.23;;;8.70;99.90;;;;;;5050021;28;20195;-64
2022/03/31 01:50:03;;;;;;;11.70;3.37;;;8.70;99.90;;;;;;5036581;28;20201;-65
2022/03/31 01:52:31;;;;;;;16.37;3.43;;;8.60;99.90;;;;;;5039329;28;20696;-66
2022/03/31 01:54:57;;;;;;;9.97;3.27;;;8.60;99.90;;;;;;5039471;28;20199;-64
2022/03/31 01:57:23;;;;;;;18.00;3.70;;;8.50;99.90;;;;;;5035500;28;20671;-64
2022/03/31 01:59:50;;;;;;;11.17;3.70;;;8.50;99.90;;;;;;5044543;28;20184;-64
2022/03/31 02:02:16;;;;;;;13.23;3.23;;;8.60;99.90;;;;;;5047469;28;20652;-66
2022/03/31 02:04:43;;;;;;;13.87;3.40;;;8.60;99.90;;;;;;5058043;28;20184;-63
2022/03/31 02:07:10;;;;;;;8.90;3.33;;;8.60;99.90;;;;;;5040411;28;20687;-64
2022/03/31 02:09:41;;;;;;;11.73;3.33;;;8.50;99.90;;;;;;5042749;28;20195;-63
2022/03/31 02:12:08;;;;;;;12.57;3.33;;;8.50;99.90;;;;;;5033284;28;20201;-63
2022/03/31 02:14:37;;;;;;;8.27;3.27;;;8.40;99.90;;;;;;5045858;28;20211;-64
2022/03/31 02:17:11;;;;;;;10.53;3.40;;;8.50;99.90;;;;;;5041367;28;20293;-64
2022/03/31 02:19:38;;;;;;;11.63;2.87;;;8.50;99.90;;;;;;5055336;28;20192;-64
2022/03/31 02:22:05;;;;;;;8.27;3.37;;;8.50;99.90;;;;;;5040677;28;20322;-63
2022/03/31 02:24:35;;;;;;;11.60;3.17;;;8.50;99.90;;;;;;5046420;28;20199;-63
2022/03/31 02:27:02;;;;;;;10.07;3.43;;;8.60;99.90;;;;;;5045163;28;20217;-63
2022/03/31 02:29:28;;;;;;;13.43;3.27;;;8.60;99.90;;;;;;5024717;28;20270;-64
2022/03/31 02:31:55;;;;;;;11.13;2.97;;;8.60;99.90;;;;;;5047375;28;20523;-64
2022/03/31 02:34:21;;;;;;;7.07;3.60;;;8.60;99.90;;;;;;5049589;28;20203;-64
2022/03/31 02:36:48;;;;;;;15.67;3.27;;;8.60;99.90;;;;;;5043725;28;20221;-63
2022/03/31 02:39:14;;;;;;;12.40;3.60;;;8.60;99.90;;;;;;5041263;28;20203;-65
2022/03/31 02:41:44;;;;;;;6.83;3.20;;;8.60;99.90;;;;;;5055625;28;20229;-66
2022/03/31 02:44:10;;;;;;;7.87;3.50;;;8.60;99.90;;;;;;5033672;28;20949;-64
2022/03/31 02:46:37;;;;;;;13.70;3.47;;;8.60;99.90;;;;;;5046455;28;20199;-65
2022/03/31 02:49:04;;;;;;;10.07;3.20;;;8.70;99.90;;;;;;5047021;28;20260;-66
2022/03/31 02:51:30;;;;;;;13.03;3.27;;;8.60;99.90;;;;;;5047336;28;20191;-63
2022/03/31 02:56:42;;;;;;;13.20;4.30;;;8.60;99.90;;;;;;5036952;28;20694;-65
2022/03/31 02:59:08;;;;;;;12.07;3.77;;;8.60;99.90;;;;;;5048329;28;20187;-64
2022/03/31 03:01:35;;;;;;;15.20;3.67;;;8.60;99.90;;;;;;5052855;28;20191;-65
2022/03/31 03:04:01;;;;;;;12.57;3.27;;;8.60;99.90;;;;;;5041441;28;20189;-64
2022/03/31 03:06:28;;;;;;;15.97;3.67;;;8.50;99.90;;;;;;5040031;28;20249;-64
2022/03/31 03:08:55;;;;;;;14.33;3.13;;;8.50;99.90;;;;;;5045861;28;20199;-65
2022/03/31 03:11:22;;;;;;;19.30;3.40;;;8.50;99.90;;;;;;5047523;28;20207;-64
2022/03/31 03:13:50;;;;;;;9.63;3.23;;;8.50;99.90;;;;;;5039198;28;20186;-64
2022/03/31 03:16:16;;;;;;;14.83;3.93;;;8.50;99.90;;;;;;5044759;28;20249;-64
2022/03/31 03:18:43;;;;;;;10.10;3.37;;;8.50;99.90;;;;;;5042758;28;20223;-65
2022/03/31 03:21:09;;;;;;;16.43;3.77;;;8.60;99.90;;;;;;5035079;28;20202;-64
2022/03/31 03:23:38;;;;;;;12.87;3.80;;;8.60;99.90;;;;;;5039634;28;20253;-63
2022/03/31 03:26:06;;;;;;;12.50;3.80;;;8.70;99.90;;;;;;5037823;28;20187;-64
2022/03/31 03:28:36;;;;;;;11.40;3.57;;;8.60;99.90;;;;;;5036116;28;20699;-64
2022/03/31 03:31:07;;;;;;;11.43;3.60;;;8.60;99.90;;;;;;5048010;28;20330;-64
2022/03/31 03:33:34;;;;;;;8.43;3.50;;;8.60;99.90;;;;;;5043429;28;20179;-64
2022/03/31 03:36:08;;;;;;;10.63;3.60;;;8.60;99.90;;;;;;5043227;28;20216;-64
2022/03/31 03:38:34;;;;;;;11.20;3.70;;;8.60;99.90;;;;;;5047237;28;20277;-63
2022/03/31 03:41:01;;;;;;;9.93;3.87;;;8.60;99.90;;;;;;5042683;28;20180;-63
2022/03/31 03:43:28;;;;;;;12.47;3.63;;;8.60;99.90;;;;;;5045185;28;20191;-65
2022/03/31 03:45:54;;;;;;;14.63;3.90;;;8.50;99.90;;;;;;5038685;28;20187;-64
2022/03/31 03:48:22;;;;;;;10.07;3.90;;;8.50;99.90;;;;;;5062047;28;20430;-64
2022/03/31 03:50:49;;;;;;;12.37;4.07;;;8.50;99.90;;;;;;5037472;28;20279;-65
2022/03/31 03:53:16;;;;;;;10.50;3.50;;;8.50;99.90;;;;;;5046551;28;20244;-64
2022/03/31 03:55:42;;;;;;;10.67;3.70;;;8.50;99.90;;;;;;5037964;28;20191;-63
2022/03/31 03:58:09;;;;;;;10.70;3.50;;;8.50;99.90;;;;;;5042788;28;20215;-64
2022/03/31 04:00:35;;;;;;;10.53;3.90;;;8.50;99.90;;;;;;5037816;28;20200;-63
2022/03/31 04:03:01;;;;;;;11.27;3.60;;;8.50;99.90;;;;;;5045326;28;20215;-63
2022/03/31 04:05:28;;;;;;;10.23;3.93;;;8.60;99.90;;;;;;5046162;28;20187;-63
2022/03/31 04:07:54;;;;;;;9.23;3.97;;;8.60;99.90;;;;;;5033142;28;20200;-65
2022/03/31 04:10:20;;;;;;;9.30;4.23;;;8.60;99.90;;;;;;5043923;28;20195;-64
2022/03/31 04:12:46;;;;;;;7.80;3.40;;;8.60;99.90;;;;;;5043486;28;20282;-65
2022/03/31 04:15:13;;;;;;;12.13;4.10;;;8.50;99.90;;;;;;5044229;28;20196;-63
2022/03/31 04:17:42;;;;;;;14.43;4.33;;;8.60;99.90;;;;;;5047559;28;20571;-64
2022/03/31 04:20:10;;;;;;;13.83;4.70;;;8.60;99.90;;;;;;5050574;28;20218;-63
2022/03/31 04:22:37;;;;;;;10.70;5.47;;;8.60;99.90;;;;;;5044370;28;20497;-66
2022/03/31 04:25:09;;;;;;;17.07;7.20;;;8.60;99.90;;;;;;5041743;28;20245;-63
2022/03/31 04:27:37;;;;;;;18.93;9.10;;;8.60;99.90;;;;;;5034005;28;20184;-65
2022/03/31 04:30:08;;;;;;;18.57;8.60;;;8.70;99.90;;;;;;5046054;28;20194;-64
2022/03/31 04:32:34;;;;;;;16.77;7.37;;;8.70;99.90;;;;;;5055388;28;20963;-65
2022/03/31 04:35:01;;;;;;;15.03;5.63;;;8.70;99.90;;;;;;5044595;28;20790;-64
2022/03/31 04:37:27;;;;;;;13.40;5.30;;;8.80;99.90;;;;;;5045653;28;20318;-65
2022/03/31 04:39:54;;;;;;;13.60;4.93;;;8.80;99.90;;;;;;5049899;28;20656;-66
2022/03/31 04:42:20;;;;;;;10.90;3.90;;;8.90;99.90;;;;;;5043521;28;20637;-63
2022/03/31 04:44:47;;;;;;;17.37;4.77;;;9.00;99.90;;;;;;5046193;28;20955;-63
2022/03/31 04:47:14;;;;;;;9.13;3.83;;;9.10;99.90;;;;;;5041403;28;20274;-64
2022/03/31 04:49:40;;;;;;;29.27;4.23;;;9.20;99.90;;;;;;5045997;28;20198;-64
2022/03/31 04:52:07;;;;;;;18.83;4.67;;;9.20;99.90;;;;;;5042231;28;20191;-65
2022/03/31 04:54:33;;;;;;;10.73;5.03;;;9.30;99.90;;;;;;5047300;28;20678;-64
2022/03/31 04:57:00;;;;;;;14.53;3.80;;;9.40;99.90;;;;;;5036040;28;20238;-63
2022/03/31 04:59:27;;;;;;;8.63;3.77;;;9.40;99.90;;;;;;5035784;28;20242;-64
2022/03/31 05:01:53;;;;;;;9.87;3.93;;;9.50;99.90;;;;;;5034546;28;20180;-63
2022/03/31 05:04:19;;;;;;;12.33;3.90;;;9.60;99.90;;;;;;5044217;28;20183;-63
2022/03/31 05:06:45;;;;;;;12.53;4.20;;;9.60;99.90;;;;;;5041249;28;20678;-63
2022/03/31 05:09:12;;;;;;;11.17;4.37;;;9.70;99.90;;;;;;5040957;28;20191;-63
2022/03/31 05:11:38;;;;;;;8.07;4.17;;;9.80;99.90;;;;;;5043423;28;20935;-65
2022/03/31 05:14:05;;;;;;;14.20;4.33;;;9.80;99.90;;;;;;5048245;28;20652;-66
2022/03/31 05:16:31;;;;;;;9.03;3.80;;;9.90;99.90;;;;;;5048361;28;20222;-63
2022/03/31 05:18:57;;;;;;;18.47;5.17;;;9.90;99.90;;;;;;5045606;28;20184;-63
2022/03/31 05:21:24;;;;;;;10.33;4.17;;;10.00;99.90;;;;;;5048682;28;20683;-64
2022/03/31 05:23:50;;;;;;;12.73;3.93;;;10.10;99.90;;;;;;5052888;28;20196;-63
2022/03/31 05:26:16;;;;;;;10.63;4.60;;;10.20;99.90;;;;;;5039680;28;20255;-65
2022/03/31 05:28:43;;;;;;;12.07;4.33;;;10.30;99.90;;;;;;5046852;28;20202;-65
2022/03/31 05:31:09;;;;;;;12.50;4.37;;;10.30;99.90;;;;;;5041482;28;20270;-65
2022/03/31 05:33:36;;;;;;;7.50;3.80;;;10.30;99.90;;;;;;5041423;28;20195;-63
2022/03/31 05:36:02;;;;;;;7.57;3.70;;;10.40;99.90;;;;;;5040691;28;20219;-64
2022/03/31 05:38:29;;;;;;;9.70;4.17;;;10.50;99.90;;;;;;5055331;28;20270;-65
2022/03/31 05:40:55;;;;;;;20.97;4.17;;;10.50;99.90;;;;;;5041929;28;20187;-64
2022/03/31 05:43:22;;;;;;;16.07;3.87;;;10.50;99.90;;;;;;5042206;28;20187;-64
2022/03/31 05:45:49;;;;;;;13.13;3.70;;;10.70;99.90;;;;;;5043363;28;20194;-63
2022/03/31 05:48:16;;;;;;;17.00;3.60;;;10.70;99.90;;;;;;5045596;28;20628;-64
2022/03/31 05:50:42;;;;;;;11.43;4.23;;;10.80;99.90;;;;;;5042108;28;20249;-64
2022/03/31 05:53:09;;;;;;;9.40;3.60;;;10.80;99.90;;;;;;5024742;28;20940;-64
2022/03/31 05:55:36;;;;;;;18.27;4.03;;;10.90;99.90;;;;;;5042662;28;20195;-64
2022/03/31 05:58:03;;;;;;;21.07;3.90;;;11.00;99.90;;;;;;5062753;28;20210;-66
2022/03/31 06:00:30;;;;;;;6.73;3.53;;;11.10;99.90;;;;;;5040094;28;20618;-63
2022/03/31 06:02:56;;;;;;;11.03;3.40;;;11.10;99.90;;;;;;5049211;28;20183;-64
2022/03/31 06:05:23;;;;;;;10.90;3.40;;;11.20;99.90;;;;;;5039579;28;20651;-65
2022/03/31 06:07:51;;;;;;;12.70;3.60;;;11.30;99.90;;;;;;5050271;28;20195;-64
2022/03/31 06:10:18;;;;;;;11.93;3.37;;;11.40;99.90;;;;;;5045280;28;20199;-63
2022/03/31 06:12:44;;;;;;;13.87;3.57;;;11.50;99.90;;;;;;5043327;28;21412;-64
2022/03/31 06:15:11;;;;;;;11.47;3.20;;;11.50;99.90;;;;;;5038676;28;20233;-66
2022/03/31 06:17:41;;;;;;;12.97;3.63;;;11.60;99.90;;;;;;5034310;28;20211;-64
2022/03/31 06:20:11;;;;;;;9.93;3.40;;;11.70;99.90;;;;;;5044732;28;20192;-65
2022/03/31 06:22:38;;;;;;;11.10;3.50;;;11.80;99.90;;;;;;5034908;28;20525;-64
2022/03/31 06:25:06;;;;;;;13.33;3.30;;;11.80;99.90;;;;;;5031974;28;20196;-65
2022/03/31 06:27:34;;;;;;;12.90;4.00;;;11.90;99.90;;;;;;5034915;28;20199;-65
2022/03/31 06:30:00;;;;;;;17.33;3.80;;;12.00;99.90;;;;;;5040324;28;20200;-65
2022/03/31 06:32:27;;;;;;;20.70;3.77;;;12.10;99.90;;;;;;5034430;28;20252;-65
2022/03/31 06:34:53;;;;;;;14.37;3.50;;;12.30;99.90;;;;;;5034223;28;20191;-65
2022/03/31 06:37:20;;;;;;;22.17;3.70;;;12.40;99.90;;;;;;5035738;28;20219;-66
2022/03/31 06:39:47;;;;;;;11.40;3.87;;;12.50;99.90;;;;;;5040176;28;20215;-64
2022/03/31 06:42:14;;;;;;;10.37;3.20;;;12.60;99.90;;;;;;5039988;28;20549;-64
2022/03/31 06:44:41;;;;;;;6.03;3.10;;;12.70;99.90;;;;;;5034625;28;20192;-65
2022/03/31 06:47:07;;;;;;;9.80;3.23;;;12.80;99.90;;;;;;5038513;28;20291;-64
2022/03/31 06:49:36;;;;;;;14.73;3.87;;;12.80;99.90;;;;;;5034378;28;20676;-63
2022/03/31 06:52:03;;;;;;;8.87;3.30;;;12.80;99.90;;;;;;5039683;28;20246;-67
2022/03/31 06:54:31;;;;;;;11.33;3.43;;;12.90;99.90;;;;;;5040019;28;20191;-64
2022/03/31 06:56:57;;;;;;;6.97;3.50;;;13.00;99.90;;;;;;5045124;28;20942;-65
2022/03/31 06:59:24;;;;;;;13.13;3.60;;;13.00;99.90;;;;;;5039027;28;20210;-65
2022/03/31 07:01:54;;;;;;;11.13;3.83;;;13.10;99.90;;;;;;5036834;28;20204;-66
2022/03/31 07:04:20;;;;;;;9.07;3.60;;;13.20;99.90;;;;;;5032391;28;20210;-65
2022/03/31 07:06:48;;;;;;;11.50;3.57;;;13.20;99.90;;;;;;5039981;28;20183;-64
2022/03/31 07:09:14;;;;;;;7.33;3.13;;;13.30;99.90;;;;;;5043345;28;20253;-67
2022/03/31 07:11:41;;;;;;;12.57;4.03;;;13.40;99.90;;;;;;5032851;28;20188;-65
2022/03/31 07:14:11;;;;;;;12.87;3.53;;;13.50;99.90;;;;;;5036256;28;20198;-66
2022/03/31 07:16:37;;;;;;;11.23;3.37;;;13.60;99.90;;;;;;5035325;28;20470;-65
2022/03/31 07:19:04;;;;;;;9.57;3.50;;;13.70;99.90;;;;;;5038043;28;20278;-65
2022/03/31 07:21:30;;;;;;;17.03;4.00;;;13.70;99.90;;;;;;5040907;28;20654;-64
2022/03/31 07:23:57;;;;;;;17.17;3.83;;;13.90;99.90;;;;;;5039995;28;20632;-64
2022/03/31 07:26:24;;;;;;;10.77;3.50;;;13.90;99.90;;;;;;5040286;28;20216;-65
2022/03/31 07:28:51;;;;;;;17.83;3.87;;;14.00;99.90;;;;;;5036124;28;20194;-64
2022/03/31 07:31:17;;;;;;;13.83;3.80;;;14.20;99.90;;;;;;5029767;28;20253;-65
2022/03/31 07:33:45;;;;;;;14.60;3.93;;;14.40;99.90;;;;;;5031320;28;20195;-67
2022/03/31 07:36:12;;;;;;;15.17;4.33;;;14.50;99.90;;;;;;5038074;28;20306;-66
2022/03/31 07:38:39;;;;;;;12.13;3.73;;;14.70;99.90;;;;;;5039008;28;20972;-65
2022/03/31 07:41:06;;;;;;;9.73;4.30;;;14.70;99.90;;;;;;5044170;28;20216;-65
2022/03/31 07:43:33;;;;;;;18.47;4.10;;;14.70;99.90;;;;;;5034053;28;20184;-66
2022/03/31 07:46:00;;;;;;;13.13;3.93;;;14.80;99.90;;;;;;5041228;28;20198;-63
2022/03/31 07:48:26;;;;;;;11.90;3.60;;;14.90;99.90;;;;;;5042563;28;20295;-64
2022/03/31 07:50:55;;;;;;;15.17;3.90;;;15.00;99.90;;;;;;5022174;28;20208;-64
2022/03/31 07:53:22;;;;;;;13.83;3.97;;;15.20;99.90;;;;;;5031901;28;20611;-65
2022/03/31 07:55:49;;;;;;;11.13;3.30;;;15.30;99.90;;;;;;5042011;28;20261;-65
2022/03/31 07:58:15;;;;;;;19.57;4.43;;;15.30;99.90;;;;;;5031713;28;20675;-65
2022/03/31 08:00:42;;;;;;;14.80;4.13;;;15.30;99.90;;;;;;5040535;28;20237;-65
2022/03/31 08:03:09;;;;;;;8.40;3.23;;;15.50;99.90;;;;;;5035598;28;20879;-64
2022/03/31 08:05:37;;;;;;;17.13;3.93;;;15.50;99.90;;;;;;5034258;28;20195;-64
2022/03/31 08:08:04;;;;;;;16.53;3.50;;;15.60;99.90;;;;;;5031154;28;20191;-65
2022/03/31 08:10:31;;;;;;;10.00;3.33;;;15.60;99.90;;;;;;5038591;28;20214;-64
2022/03/31 08:12:57;;;;;;;15.57;3.80;;;15.80;99.90;;;;;;5041583;28;20192;-64
2022/03/31 08:15:24;;;;;;;15.07;3.70;;;15.90;99.90;;;;;;5038445;28;20236;-66
2022/03/31 08:17:51;;;;;;;21.43;4.07;;;16.10;99.90;;;;;;5034316;28;20227;-64
2022/03/31 08:20:18;;;;;;;12.13;3.60;;;16.20;99.90;;;;;;5043711;28;20257;-65
2022/03/31 08:22:45;;;;;;;16.33;3.67;;;16.20;99.90;;;;;;5044228;28;20183;-66
2022/03/31 08:25:15;;;;;;;9.57;3.47;;;16.20;99.90;;;;;;5040947;28;20278;-65
2022/03/31 08:27:42;;;;;;;9.90;3.60;;;16.30;99.90;;;;;;5039974;28;20199;-64
2022/03/31 08:30:14;;;;;;;18.37;4.13;;;16.40;99.90;;;;;;5037714;28;20184;-64
2022/03/31 08:32:43;;;;;;;26.17;4.77;;;16.60;99.90;;;;;;5044335;28;20195;-65
2022/03/31 08:35:11;;;;;;;12.20;4.10;;;16.70;99.90;;;;;;5039519;28;20279;-64
2022/03/31 08:37:38;;;;;;;14.10;3.73;;;16.70;99.90;;;;;;5045203;28;20223;-64
2022/03/31 08:40:08;;;;;;;11.87;4.40;;;16.70;99.90;;;;;;5044628;28;20277;-66
2022/03/31 08:42:35;;;;;;;13.57;4.10;;;16.70;99.90;;;;;;5036319;28;20676;-65
2022/03/31 08:45:04;;;;;;;8.83;3.53;;;16.80;99.90;;;;;;5037692;28;20333;-64
2022/03/31 08:47:34;;;;;;;8.07;3.70;;;16.80;99.90;;;;;;5040890;28;20199;-65
2022/03/31 08:50:00;;;;;;;14.90;3.87;;;16.80;99.90;;;;;;5054667;28;20187;-63
2022/03/31 08:52:27;;;;;;;15.07;3.93;;;16.80;99.90;;;;;;5037646;28;20234;-64
2022/03/31 08:54:53;;;;;;;14.17;3.93;;;16.80;99.90;;;;;;5042553;28;20197;-66
2022/03/31 08:57:20;;;;;;;12.73;3.83;;;16.90;99.90;;;;;;5056467;28;20211;-64
2022/03/31 08:59:47;;;;;;;12.23;3.80;;;17.00;99.90;;;;;;5039111;28;20584;-63
2022/03/31 09:02:27;;;;;;;10.90;3.67;;;17.00;99.90;;;;;;5041832;28;20191;-64
2022/03/31 09:05:06;;;;;;;14.17;3.73;;;17.10;99.90;;;;;;5038341;28;20336;-62
2022/03/31 09:07:32;;;;;;;12.60;3.90;;;17.20;99.90;;;;;;5033983;28;20215;-63
2022/03/31 09:10:02;;;;;;;9.13;3.60;;;17.30;99.90;;;;;;5046297;28;20191;-62
2022/03/31 09:12:39;;;;;;;10.97;3.37;;;17.40;99.90;;;;;;5039029;28;20603;-62
2022/03/31 09:15:13;;;;;;;13.93;3.20;;;17.50;99.90;;;;;;5042967;28;20229;-63
2022/03/31 09:17:40;;;;;;;12.07;3.80;;;17.50;99.90;;;;;;5037359;28;20230;-65
2022/03/31 09:20:07;;;;;;;16.00;4.07;;;17.50;99.90;;;;;;5036824;28;20195;-68
2022/03/31 09:22:49;;;;;;;18.43;4.33;;;17.70;99.90;;;;;;5038642;28;20187;-65
2022/03/31 09:25:32;;;;;;;23.23;3.90;;;17.70;99.90;;;;;;5038810;28;20910;-65
2022/03/31 09:28:01;;;;;;;14.73;4.53;;;17.90;99.90;;;;;;5039896;28;20211;-69
2022/03/31 09:30:28;;;;;;;15.77;4.07;;;18.00;99.90;;;;;;5046858;28;20493;-66
2022/03/31 09:32:54;;;;;;;13.80;3.83;;;18.10;99.90;;;;;;5038114;28;20215;-65
2022/03/31 09:35:25;;;;;;;20.30;4.03;;;18.20;99.90;;;;;;5047055;28;20202;-67
2022/03/31 09:37:55;;;;;;;12.10;4.00;;;18.30;99.90;;;;;;5050639;28;20206;-67
2022/03/31 09:40:21;;;;;;;20.30;4.03;;;18.40;99.90;;;;;;5046710;28;20644;-65
2022/03/31 09:43:00;;;;;;;10.00;3.70;;;18.50;99.90;;;;;;5031290;28;20184;-66
2022/03/31 09:45:40;;;;;;;13.80;4.50;;;18.80;99.90;;;;;;5056303;28;20216;-66
2022/03/31 09:48:21;;;;;;;15.40;4.97;;;19.00;99.90;;;;;;5054972;28;20864;-70
2022/03/31 09:50:49;;;;;;;13.87;4.67;;;19.20;99.90;;;;;;5046596;28;20200;-65
2022/03/31 09:53:17;;;;;;;16.20;4.30;;;19.30;99.90;;;;;;5041033;28;20275;-69
2022/03/31 09:55:44;;;;;;;17.70;4.10;;;19.40;99.90;;;;;;5039664;28;20301;-67
2022/03/31 09:58:20;;;;;;;10.83;4.60;;;19.60;99.90;;;;;;5052877;28;20568;-66
2022/03/31 10:00:48;;;;;;;20.33;5.33;;;19.90;99.90;;;;;;5044644;28;20686;-65
2022/03/31 10:03:20;;;;;;;14.43;4.17;;;20.10;99.90;;;;;;5048818;28;20250;-67
2022/03/31 10:05:48;;;;;;;16.73;4.23;;;20.40;99.90;;;;;;5033781;28;20187;-65
2022/03/31 10:08:15;;;;;;;16.67;4.07;;;20.60;99.90;;;;;;5043365;28;20187;-67
2022/03/31 10:10:43;;;;;;;13.60;3.87;;;20.70;99.90;;;;;;5043178;28;20196;-65
2022/03/31 10:13:36;;;;;;;12.80;4.00;;;20.80;99.90;;;;;;5048276;28;20747;-66
2022/03/31 10:16:14;;;;;;;16.63;4.37;;;21.00;99.90;;;;;;5043099;28;20207;-69
2022/03/31 10:18:41;;;;;;;13.47;4.13;;;20.90;99.90;;;;;;5035888;28;20207;-66
2022/03/31 10:21:08;;;;;;;16.80;4.50;;;21.10;99.90;;;;;;5046193;28;20196;-65
2022/03/31 10:26:27;;;;;;;16.47;4.50;;;22.50;99.90;;;;;;5033106;28;20192;-65
2022/03/31 10:29:02;;;;;;;19.07;4.40;;;21.50;99.90;;;;;;5022896;28;20295;-67
2022/03/31 10:31:46;;;;;;;24.83;4.43;;;20.90;99.90;;;;;;5033365;28;20194;-67
2022/03/31 10:34:14;;;;;;;11.27;4.10;;;20.60;99.90;;;;;;5040103;28;20202;-65
2022/03/31 10:36:48;;;;;;;17.87;3.90;;;20.40;99.90;;;;;;5040840;28;20684;-67
2022/03/31 10:39:25;;;;;;;14.93;4.50;;;20.20;99.90;;;;;;5037950;28;20605;-65
2022/03/31 10:42:08;;;;;;;20.80;3.90;;;20.20;99.90;;;;;;5044310;28;20187;-67
2022/03/31 10:44:34;;;;;;;17.33;4.67;;;20.20;99.90;;;;;;5063823;28;20183;-66
2022/03/31 10:47:09;;;;;;;12.43;3.93;;;20.20;99.90;;;;;;5029568;28;20541;-68
2022/03/31 10:49:37;;;;;;;15.27;4.83;;;20.20;99.90;;;;;;5038132;28;20188;-67
2022/03/31 10:52:23;;;;;;;19.13;3.93;;;20.10;99.90;;;;;;5040804;28;20522;-66
2022/03/31 10:54:51;;;;;;;14.07;3.57;;;20.10;99.90;;;;;;5033094;28;20195;-66
2022/03/31 10:57:19;;;;;;;13.57;4.23;;;20.10;99.90;;;;;;5048577;28;20216;-66
2022/03/31 10:59:49;;;;;;;18.27;4.10;;;20.00;99.90;;;;;;5037329;28;20261;-68
2022/03/31 11:02:19;;;;;;;8.83;3.77;;;19.90;99.90;;;;;;5043366;28;20211;-66
2022/03/31 11:05:00;;;;;;;10.23;4.03;;;19.90;99.90;;;;;;5040777;28;20617;-66
2022/03/31 11:07:28;;;;;;;11.03;3.90;;;19.70;99.90;;;;;;5040719;28;20206;-66
2022/03/31 11:10:10;;;;;;;23.83;3.93;;;19.70;99.90;;;;;;5047961;28;20245;-66
2022/03/31 11:12:37;;;;;;;14.93;3.87;;;19.70;99.90;;;;;;5056050;28;20219;-66
2022/03/31 11:15:15;;;;;;;13.73;4.27;;;19.70;99.90;;;;;;5042510;28;20193;-65
2022/03/31 11:17:43;;;;;;;12.97;3.93;;;19.70;99.90;;;;;;5032576;28;21165;-66
2022/03/31 11:20:24;;;;;;;13.43;4.20;;;19.70;99.90;;;;;;5035260;28;20191;-66
2022/03/31 11:22:54;;;;;;;13.13;4.37;;;19.70;99.90;;;;;;5039834;28;20196;-67
2022/03/31 11:25:23;;;;;;;22.87;4.83;;;19.70;99.90;;;;;;5035078;28;20179;-67
2022/03/31 11:27:52;;;;;;;12.00;3.90;;;19.60;99.90;;;;;;5048134;28;20200;-65
2022/03/31 11:30:29;;;;;;;17.47;5.10;;;19.70;99.90;;;;;;5039580;28;20292;-67
2022/03/31 11:32:57;;;;;;;11.70;4.13;;;19.70;99.90;;;;;;5040721;28;20552;-67
2022/03/31 11:35:27;;;;;;;19.70;3.97;;;19.70;99.90;;;;;;5040812;28;20206;-66
2022/03/31 11:38:03;;;;;;;18.80;3.80;;;19.70;99.90;;;;;;5057032;28;20242;-69
2022/03/31 11:40:36;;;;;;;12.73;4.30;;;19.60;99.90;;;;;;5037748;28;20318;-65
2022/03/31 11:43:08;;;;;;;17.87;4.10;;;19.60;99.90;;;;;;5030390;28;20192;-68
2022/03/31 11:45:49;;;;;;;15.03;4.27;;;19.60;99.90;;;;;;5036178;28;20188;-65
2022/03/31 11:48:44;;;;;;;10.00;3.87;;;19.60;99.90;;;;;;5033369;28;20199;-65
2022/03/31 11:51:13;;;;;;;13.67;4.50;;;19.60;99.90;;;;;;5043213;28;20275;-65
2022/03/31 11:53:49;;;;;;;15.83;4.43;;;19.50;99.90;;;;;;5035944;28;20600;-65
2022/03/31 11:56:22;;;;;;;12.70;4.23;;;19.40;99.90;;;;;;5038839;28;20823;-67
2022/03/31 11:58:57;;;;;;;9.43;4.17;;;19.40;99.90;;;;;;5038477;28;20254;-67
2022/03/31 12:01:43;;;;;;;12.70;3.73;;;19.40;99.90;;;;;;5045130;28;20187;-65
2022/03/31 12:04:31;;;;;;;12.30;4.37;;;19.40;99.90;;;;;;5047156;28;20203;-67
2022/03/31 12:07:05;;;;;;;11.77;4.10;;;19.40;99.90;;;;;;5028655;28;20279;-65
2022/03/31 12:09:32;;;;;;;15.77;4.00;;;19.40;99.90;;;;;;5036503;28;20187;-67
2022/03/31 12:11:59;;;;;;;13.43;3.90;;;19.40;99.90;;;;;;5038811;28;20213;-65
2022/03/31 12:14:30;;;;;;;13.43;4.20;;;19.30;99.90;;;;;;5051742;28;20199;-66
2022/03/31 12:16:59;;;;;;;15.40;4.73;;;19.30;99.90;;;;;;5037595;28;20199;-67
2022/03/31 12:19:40;;;;;;;12.33;4.10;;;19.30;99.90;;;;;;5034882;28;20191;-66
2022/03/31 12:22:09;;;;;;;12.43;4.00;;;19.20;99.90;;;;;;5036294;28;20281;-68
2022/03/31 12:24:50;;;;;;;16.07;4.00;;;19.30;99.90;;;;;;5029168;28;20198;-67
2022/03/31 12:27:18;;;;;;;11.53;4.30;;;19.20;99.90;;;;;;5031384;28;20196;-66
2022/03/31 12:29:59;;;;;;;16.87;4.80;;;19.20;99.90;;;;;;5035740;28;20234;-69
2022/03/31 12:32:25;;;;;;;13.67;4.53;;;19.10;99.90;;;;;;5036111;28;20900;-68
2022/03/31 12:34:59;;;;;;;12.30;4.23;;;19.10;99.90;;;;;;5039169;28;20191;-67
2022/03/31 12:37:35;;;;;;;10.80;3.60;;;19.10;99.90;;;;;;5033009;28;20216;-69
2022/03/31 12:40:13;;;;;;;17.10;4.33;;;19.10;99.90;;;;;;5039673;28;20191;-65
2022/03/31 12:42:56;;;;;;;14.13;4.20;;;19.10;99.90;;;;;;5046486;28;20188;-66
2022/03/31 12:45:24;;;;;;;15.00;4.30;;;19.00;99.90;;;;;;5033337;28;20192;-66
2022/03/31 12:47:51;;;;;;;10.17;4.23;;;19.10;99.90;;;;;;5043605;28;20206;-65
2022/03/31 12:50:23;;;;;;;14.23;4.43;;;19.00;99.90;;;;;;5046786;28;20184;-66
2022/03/31 12:53:00;;;;;;;16.67;4.47;;;19.20;99.90;;;;;;5063304;28;20278;-67
2022/03/31 12:55:32;;;;;;;11.10;4.63;;;19.20;99.90;;;;;;5045759;28;20562;-66
2022/03/31 12:58:00;;;;;;;14.33;4.37;;;19.10;99.90;;;;;;5049020;28;20262;-67